• Join FlightAware (Why Join?)
  • Login
  • US Flag 
04:41PM EDT


 

Airport Tracker/Info


-or-


 

Live Flight TrackerFlight Track Log ✈ FDX1606 ✈ 12-Jun-2013 ✈ KORD - KIND

Flight Track Log - Related Links

Times and Time Zones

All times are in EDT time to prevent confusion due to time zone crossing. See the FDX1606 flight status page for this flight to view local times or setup timezone preferences in your user account.

Time Position Orientation Groundspeed Altitude Reporting Facility
EDT Latitude Longitude Course Direction KTS MPH feet Rate Location/Type
11:55PM 41.9640 -87.9280 180° South 2 2  Level FlightAware
11:59PM 41.9630 -87.9280 180° South 2 2  Level FlightAware
12:01AM 41.6003 -87.6554 151° Southeast  Level Estimated
12:02AM 41.4140 -87.5167 151° Southeast  Level Estimated
12:03AM 41.2275 -87.3789 151° Southeast  Level Estimated
12:04AM 41.0409 -87.2419 151° Southeast  Level Estimated
12:05AM 40.8542 -87.1056 151° Southeast  Level Estimated
12:06AM 40.6672 -86.9701 151° Southeast  Level Estimated
12:07AM 40.4801 -86.8353 151° Southeast  Level Estimated
12:08AM 40.2929 -86.7013 151° Southeast  Level Estimated
12:09AM 40.1055 -86.5681 151° Southeast  Level Estimated
12:10AM 39.9180 -86.4355 152° Southeast  Level Estimated
12:11AM 39.7303 -86.3037 152° Southeast  Level Estimated
12:12AM 39.7173 -86.2947 152° Southeast  Level Estimated
12:13AM 39.7173 -86.2947 226° Southwest  Level Estimated
12:14AM 39.7173 -86.2947 226° Southwest  Level Estimated
12:15AM 39.7173 -86.2947 226° Southwest  Level Estimated
12:16AM 39.7173 -86.2947 226° Southwest  Level Estimated
12:17AM 39.7173 -86.2947 226° Southwest  Level Estimated
12:18AM 39.7173 -86.2947 226° Southwest  Level Estimated
12:19AM 39.7173 -86.2947 226° Southwest  Level Estimated
12:20AM 39.7173 -86.2947 226° Southwest  Level Estimated
12:21AM 39.7173 -86.2947 226° Southwest  Level Estimated
12:22AM 39.7173 -86.2947 226° Southwest  Level Estimated
12:23AM 39.7173 -86.2947 226° Southwest  Level Estimated
12:24AM 39.7173 -86.2947 226° Southwest  Level Estimated
12:25AM 39.7173 -86.2947 226° Southwest  Level Estimated
12:26AM 39.7173 -86.2947 226° Southwest  Level Estimated
12:27AM 39.7173 -86.2947 226° Southwest  Level Estimated
12:28AM 39.7173 -86.2947 226° Southwest  Level Estimated
12:29AM 39.7173 -86.2947 226° Southwest  Level Estimated
12:30AM 39.7173 -86.2947 226° Southwest  Level Estimated
12:31AM 39.7173 -86.2947 226° Southwest  Level Estimated
12:32AM 39.7173 -86.2947 226° Southwest  Level Estimated
12:33AM 39.7173 -86.2947 226° Southwest  Level Estimated
12:34AM 39.7173 -86.2947 226° Southwest  Level Estimated
12:35AM 39.7173 -86.2947 226° Southwest  Level Estimated
12:36AM 39.7173 -86.2947 226° Southwest  Level Estimated
12:37AM 39.7173 -86.2947 226° Southwest  Level Estimated
12:38AM 39.7173 -86.2947 226° Southwest  Level Estimated
12:39AM 39.7173 -86.2947 226° Southwest  Level Estimated
12:40AM 39.7173 -86.2947 226° Southwest  Level Estimated
12:41AM 39.7173 -86.2947 226° Southwest  Level Estimated
12:43AM 41.5857 -87.6439 151° Southeast  Level Estimated
12:44AM 41.3994 -87.5054 151° Southeast  Level Estimated
12:44AM 41.9640 -87.9260 151° Southeast 25 29  Level FlightAware
12:45AM 41.9650 -87.9250 37° Northeast 20 23 60 Level FlightAware
12:45AM 41.9660 -87.9250 360° North 25 29 120 Level FlightAware
12:46AM 41.9680 -87.9250 360° North 22 25 120 Level FlightAware
12:48AM 41.6173 -87.6624 151° Southeast  Level Estimated
12:49AM 41.4309 -87.5242 151° Southeast  Level Estimated
12:49AM 41.9690 -87.9250 151° Southeast 16 18  Level FlightAware
12:50AM 41.9700 -87.9250 360° North 22 25 180 Level FlightAware
12:50AM 41.9700 -87.9240 90° East 27 31 240 Level FlightAware
12:51AM 41.9700 -87.9210 90° East 28 32 240 Level FlightAware
12:51AM 41.9700 -87.9160 90° East 28 32 300 Level FlightAware
12:52AM 41.9700 -87.9150 90° East 31 36 360 Level FlightAware
12:52AM 41.9700 -87.9110 90° East 33 38 480 Level FlightAware
12:53AM 41.9750 -87.9160 323° Northwest 94 108 660 Level FlightAware
12:54AM 41.9900 -87.9330 320° Northwest 174 200 1,100 1,980 Climbing FlightAware
12:54AM 42.0080 -87.9510 323° Northwest 175 201 2,000 1,560 Climbing FlightAware
12:55AM 42.0250 -87.9690 322° Northwest 161 185 3,000 1,800 Climbing FlightAware
12:55AM 42.0520 -87.9950 324° Northwest 178 205 4,200 1,920 Climbing FlightAware
12:56AM 42.0730 -88.0130 328° Northwest 210 242 4,700 1,140 Climbing FlightAware
12:56AM 42.0840 -88.0230 326° Northwest 224 258 5,000 1,620 Climbing FlightAware
12:57AM 42.1110 -88.0460 328° Northwest 250 288 5,900 2,520 Climbing FlightAware
12:57AM 42.1380 -88.0690 328° Northwest 247 284 7,400 2,940 Climbing FlightAware
12:58AM 42.1620 -88.0890 328° Northwest 251 289 8,500 2,460 Climbing FlightAware
12:58AM 42.1720 -88.1060 308° West 256 295 9,000 2,400 Climbing FlightAware
12:58AM 42.1760 -88.1280 284° West 261 300 9,600 2,580 Climbing FlightAware
12:59AM 42.1690 -88.2040 263° West 278 320 11,500 2,460 Climbing FlightAware
12:59AM 42.1560 -88.2720 256° West 282 325 13,200 2,400 Climbing FlightAware
01:00AM 42.1320 -88.3400 245° Southwest 277 319 14,900 1,740 Climbing FlightAware
01:01AM 42.1090 -88.4090 246° West 303 349 15,700 1,080 Climbing FlightAware
01:02AM 42.0820 -88.4860 245° Southwest 330 380 16,500 1,140 Climbing FlightAware
01:02AM 42.0460 -88.5600 237° Southwest 362 417 17,300 1,260 Climbing FlightAware
01:03AM 41.9920 -88.6330 225° Southwest 377 434 18,300 1,620 Climbing FlightAware
01:04AM 41.9430 -88.6950 223° Southwest 379 436 19,600 1,800 Climbing FlightAware
01:04AM 41.8870 -88.7660 223° Southwest 384 442 20,800 1,380 Climbing FlightAware
01:05AM 41.8300 -88.8380 223° Southwest 399 459 21,600 1,080 Climbing FlightAware
01:06AM 41.7770 -88.9050 223° Southwest 410 472 22,300 1,200 Climbing FlightAware
01:06AM 41.7230 -88.9930 231° Southwest 409 471 23,300 1,200 Climbing FlightAware
01:07AM 41.6840 -89.0840 240° Southwest 418 481 24,100 1,140 Climbing FlightAware
01:08AM 41.6430 -89.1760 239° Southwest 426 490 24,900 1,020 Climbing FlightAware
01:09AM 41.5970 -89.2760 238° Southwest 435 501 25,600 960 Climbing FlightAware
01:09AM 41.5560 -89.3720 240° Southwest 439 505 26,300 900 Climbing FlightAware
01:10AM 41.5110 -89.4770 240° Southwest 450 518 26,900 900 Climbing FlightAware
01:11AM 41.4200 -89.6260 231° Southwest 475 547 28,100 1,080 Climbing FlightAware
01:12AM 41.3320 -89.6640 198° South 481 554 29,000 1,020 Climbing FlightAware
01:13AM 41.2360 -89.6830 188° South 500 575 29,600 840 Climbing FlightAware
01:13AM 41.1450 -89.6570 168° South 507 583 30,200 840 Climbing FlightAware
01:14AM 41.0520 -89.6260 166° South 510 587 30,800 1,200 Climbing FlightAware
01:15AM 40.9600 -89.5570 150° Southeast 499 574 31,900 1,200 Climbing FlightAware
01:15AM 40.9080 -89.4710 129° Southeast 502 578 32,400 840 Climbing FlightAware
01:16AM 40.8690 -89.3600 115° Southeast 501 577 33,000 960 Climbing FlightAware
01:17AM 40.8270 -89.2340 114° Southeast 499 574 33,800 960 Climbing FlightAware
01:17AM 40.7920 -89.1290 114° Southeast 493 567 34,400 900 Climbing FlightAware
01:18AM 40.7550 -89.0170 114° Southeast 488 562 35,000 360 Climbing FlightAware
01:19AM 40.7130 -88.8920 114° Southeast 489 563 35,000  Level FlightAware
01:19AM 40.6760 -88.7860 115° Southeast 489 563 35,000 -180 Level FlightAware
01:20AM 40.6370 -88.6720 114° Southeast 488 562 34,800 -960 Descending FlightAware
01:21AM 40.5970 -88.5540 114° Southeast 492 566 33,700 -1,980 Descending FlightAware
01:22AM 40.5550 -88.4340 115° Southeast 491 565 32,000 -2,340 Descending FlightAware
01:22AM 40.5090 -88.3340 121° Southeast 480 552 30,500 -2,160 Descending FlightAware
01:23AM 40.4520 -88.2320 126° Southeast 470 541 29,000 -2,160 Descending FlightAware
01:24AM 40.3960 -88.1430 130° Southeast 475 547 27,500 -2,160 Descending FlightAware
01:24AM 40.3390 -88.0510 129° Southeast 477 549 26,100 -2,160 Descending FlightAware
01:25AM 40.2620 -87.9130 126° Southeast 479 551 23,900 -2,220 Descending FlightAware
01:26AM 40.2180 -87.8110 119° Southeast 473 544 22,400 -2,100 Descending FlightAware
01:27AM 40.1770 -87.6980 115° Southeast 459 528 21,000 -1,560 Descending FlightAware
01:27AM 40.1420 -87.5960 114° Southeast 449 517 20,200 -2,100 Descending FlightAware
01:28AM 40.1160 -87.5010 110° East 460 529 18,300 -2,340 Descending FlightAware
01:29AM 40.0790 -87.3970 115° Southeast 441 507 17,100 -1,860 Descending FlightAware
01:29AM 40.0340 -87.2980 121° Southeast 428 493 15,700 -1,800 Descending FlightAware
01:30AM 39.9710 -87.1760 124° Southeast 409 471 14,100 -1,500 Descending FlightAware
01:31AM 39.9290 -87.0960 124° Southeast 388 447 13,300 -900 Descending FlightAware
01:32AM 39.8870 -87.0130 123° Southeast 390 449 12,900 -720 Descending FlightAware
01:32AM 39.8590 -86.9230 112° Southeast 392 451 12,300 -900 Descending FlightAware
01:33AM 39.8500 -86.8280 97° East 372 428 11,700 -960 Descending FlightAware
01:34AM 39.8490 -86.7370 91° East 347 399 11,000 -960 Descending FlightAware
01:35AM 39.8470 -86.6540 92° East 330 380 10,400 -1,200 Descending FlightAware
01:35AM 39.8460 -86.5670 91° East 325 374 9,300 -1,620 Descending FlightAware
01:36AM 39.8450 -86.5130 91° East 321 369 8,500 -1,860 Descending FlightAware
01:36AM 39.8440 -86.4840 93° East 320 368 8,000 -2,160 Descending FlightAware
01:36AM 39.8430 -86.4320 91° East 318 366 7,000 -2,160 Descending FlightAware
01:37AM 39.8420 -86.3820 91° East 324 373 6,100 -1,500 Descending FlightAware
01:37AM 39.8430 -86.3240 89° East 312 359 5,600 -1,200 Descending FlightAware
01:38AM 39.8390 -86.2700 95° East 290 334 4,900 -1,320 Descending FlightAware
01:38AM 39.8370 -86.2500 97° East 283 326 4,700 -1,080 Descending FlightAware
01:38AM 39.8420 -86.2220 77° East 268 308 4,400 -900 Descending FlightAware
01:39AM 39.8440 -86.2080 79° East 265 305 4,300 -1,020 Descending FlightAware
01:39AM 39.8270 -86.1700 120° Southeast 211 243 3,700 -1,140 Descending FlightAware
01:39AM 39.8160 -86.1660 164° South 181 208 3,500 -1,080 Descending FlightAware
01:40AM 39.7910 -86.1880 214° Southwest 144 166 2,700 -900 Descending FlightAware
01:40AM 39.7860 -86.1950 227° Southwest 143 165 2,700 -300 Level FlightAware
01:41AM 39.7730 -86.2110 223° Southwest 119 137 2,500 -600 Descending FlightAware
01:41AM 39.7670 -86.2190 226° Southwest 121 139 2,300 -720 Descending FlightAware
01:41AM 39.7560 -86.2340 226° Southwest 124 143 2,000 -660 Descending FlightAware
01:42AM 39.7440 -86.2490 224° Southwest 130 150 1,700 -660 Descending FlightAware
01:42AM 39.7390 -86.2550 223° Southwest 132 152 1,600 -600 Descending FlightAware
01:43AM 39.7260 -86.2710 223° Southwest 134 154 1,300 -660 Descending FlightAware
01:43AM 39.7140 -86.2870 226° Southwest 120 138 -2,700 Descending FlightAware
01:43AM 39.7110 -86.2910 226° Southwest 86 99  Level FlightAware
01:47AM 39.7120 -86.2870 72° East 20 23  Level FlightAware
01:48AM 39.7160 -86.2810 49° Northeast 15 17  Level FlightAware
01:48AM 39.7170 -86.2800 38° Northeast 10 12  Level FlightAware
01:49AM 39.7160 -86.2790 142° Southeast 17 20  Level FlightAware